Achico, Argentina
Current Conditions -  °F | °C
As of 12:00 AM on Monday 24 Nov 2014 (Local Time) from SAZS Reporting Station
Scattered Clouds Scattered Clouds  
Wind Chill: 34°   Ceiling: Unl
Heat Index: 41°   Visibility: 6mi
Dew Point: 37°   Wind: 12mph
Humidity: 87%   Direction: 290°WNW
Pressure: 29.88"   Gusts: NA
Location:  40.17°S, 70.28°W
Report Text: SAZS 240300Z 29010KT 9999 FEW015 SCT02505/03 Q1012 RERA
Loading
Personal Weather Stations






























Interactive Weather Map New forecast layout! Learn more

10-Day Weather Forecast

Advertisements
Track Severe Weather on mobile